sensor_id;sensor_type;location;lat;lon;timestamp;pressure;altitude;pressure_sealevel;temperature;humidity
77124;BME280;66079;47.646;19.130;2023-05-07T00:02:21;100426.94;;;15.05;86.91
77124;BME280;66079;47.646;19.130;2023-05-07T00:05:25;100412.91;;;15.00;86.52
77124;BME280;66079;47.646;19.130;2023-05-07T00:08:28;100413.72;;;15.00;86.41
77124;BME280;66079;47.646;19.130;2023-05-07T00:11:31;100423.28;;;15.06;86.32
77124;BME280;66079;47.646;19.130;2023-05-07T00:14:35;100421.34;;;15.02;86.30
77124;BME280;66079;47.646;19.130;2023-05-07T00:17:37;100423.38;;;15.00;86.18
77124;BME280;66079;47.646;19.130;2023-05-07T00:20:40;100426.00;;;14.88;86.69
77124;BME280;66079;47.646;19.130;2023-05-07T00:23:43;100422.81;;;14.86;86.86
77124;BME280;66079;47.646;19.130;2023-05-07T00:26:45;100425.22;;;14.88;86.89
77124;BME280;66079;47.646;19.130;2023-05-07T00:29:48;100408.16;;;14.74;87.07
77124;BME280;66079;47.646;19.130;2023-05-07T00:32:50;100425.44;;;14.86;86.99
77124;BME280;66079;47.646;19.130;2023-05-07T00:35:53;100405.41;;;14.80;86.81
77124;BME280;66079;47.646;19.130;2023-05-07T00:39:00;100422.28;;;14.96;86.89
77124;BME280;66079;47.646;19.130;2023-05-07T00:42:03;100423.03;;;14.96;87.21
77124;BME280;66079;47.646;19.130;2023-05-07T00:45:06;100422.59;;;14.99;87.17
77124;BME280;66079;47.646;19.130;2023-05-07T00:48:10;100414.19;;;14.97;87.20
77124;BME280;66079;47.646;19.130;2023-05-07T00:51:12;100415.66;;;15.05;87.12
77124;BME280;66079;47.646;19.130;2023-05-07T00:54:15;100418.59;;;15.08;87.27
77124;BME280;66079;47.646;19.130;2023-05-07T00:57:18;100427.63;;;15.12;87.71
77124;BME280;66079;47.646;19.130;2023-05-07T01:00:22;100412.09;;;15.11;87.20
77124;BME280;66079;47.646;19.130;2023-05-07T01:03:25;100433.72;;;15.29;87.14
77124;BME280;66079;47.646;19.130;2023-05-07T01:06:29;100427.25;;;15.20;87.61
77124;BME280;66079;47.646;19.130;2023-05-07T01:09:32;100417.44;;;15.16;87.69
77124;BME280;66079;47.646;19.130;2023-05-07T01:12:38;100433.16;;;15.27;87.33
77124;BME280;66079;47.646;19.130;2023-05-07T01:15:43;100426.56;;;15.25;86.53
77124;BME280;66079;47.646;19.130;2023-05-07T01:18:45;100431.69;;;15.20;87.16
77124;BME280;66079;47.646;19.130;2023-05-07T01:21:51;100443.31;;;15.24;87.01
77124;BME280;66079;47.646;19.130;2023-05-07T01:24:59;100427.94;;;15.16;86.85
77124;BME280;66079;47.646;19.130;2023-05-07T01:28:04;100445.59;;;15.20;86.84
77124;BME280;66079;47.646;19.130;2023-05-07T01:31:12;100436.13;;;15.19;86.76
77124;BME280;66079;47.646;19.130;2023-05-07T01:34:17;100426.91;;;15.17;86.49
77124;BME280;66079;47.646;19.130;2023-05-07T01:37:21;100437.84;;;15.25;86.36
77124;BME280;66079;47.646;19.130;2023-05-07T01:40:25;100428.38;;;15.13;86.57
77124;BME280;66079;47.646;19.130;2023-05-07T01:43:29;100428.50;;;15.06;86.95
77124;BME280;66079;47.646;19.130;2023-05-07T01:46:32;100437.50;;;14.99;87.49
77124;BME280;66079;47.646;19.130;2023-05-07T01:49:36;100409.19;;;14.84;87.75
77124;BME280;66079;47.646;19.130;2023-05-07T01:52:39;100423.75;;;14.92;88.12
77124;BME280;66079;47.646;19.130;2023-05-07T01:55:41;100434.19;;;14.80;88.76
77124;BME280;66079;47.646;19.130;2023-05-07T01:58:47;100413.84;;;14.71;89.17
77124;BME280;66079;47.646;19.130;2023-05-07T02:01:50;100414.66;;;14.71;88.98
77124;BME280;66079;47.646;19.130;2023-05-07T02:04:53;100411.44;;;14.69;88.97
77124;BME280;66079;47.646;19.130;2023-05-07T02:07:57;100407.22;;;14.68;88.98
77124;BME280;66079;47.646;19.130;2023-05-07T02:11:02;100417.81;;;14.73;89.32
77124;BME280;66079;47.646;19.130;2023-05-07T02:14:05;100418.38;;;14.63;89.63
77124;BME280;66079;47.646;19.130;2023-05-07T02:17:08;100414.38;;;14.49;89.80
77124;BME280;66079;47.646;19.130;2023-05-07T02:20:11;100410.03;;;14.43;90.54
77124;BME280;66079;47.646;19.130;2023-05-07T02:23:16;100418.78;;;14.37;91.09
77124;BME280;66079;47.646;19.130;2023-05-07T02:26:19;100434.72;;;14.36;91.27
77124;BME280;66079;47.646;19.130;2023-05-07T02:29:22;100425.16;;;14.30;91.43
77124;BME280;66079;47.646;19.130;2023-05-07T02:32:25;100421.66;;;14.18;91.92
77124;BME280;66079;47.646;19.130;2023-05-07T02:35:28;100425.09;;;14.18;91.86
77124;BME280;66079;47.646;19.130;2023-05-07T02:38:32;100426.16;;;14.29;91.31
77124;BME280;66079;47.646;19.130;2023-05-07T02:41:35;100407.91;;;14.22;90.69
77124;BME280;66079;47.646;19.130;2023-05-07T02:44:37;100412.91;;;14.24;90.65
77124;BME280;66079;47.646;19.130;2023-05-07T02:47:40;100410.41;;;14.17;90.78
77124;BME280;66079;47.646;19.130;2023-05-07T02:50:43;100417.59;;;14.22;90.79
77124;BME280;66079;47.646;19.130;2023-05-07T02:53:48;100407.56;;;14.19;90.56
77124;BME280;66079;47.646;19.130;2023-05-07T02:56:50;100407.34;;;14.20;90.34
77124;BME280;66079;47.646;19.130;2023-05-07T02:59:53;100409.13;;;14.26;90.51
77124;BME280;66079;47.646;19.130;2023-05-07T03:02:56;100401.34;;;14.20;90.37
77124;BME280;66079;47.646;19.130;2023-05-07T03:05:59;100420.94;;;14.29;90.43
77124;BME280;66079;47.646;19.130;2023-05-07T03:09:02;100416.84;;;14.33;90.16
77124;BME280;66079;47.646;19.130;2023-05-07T03:12:05;100402.63;;;14.29;90.38
77124;BME280;66079;47.646;19.130;2023-05-07T03:15:08;100432.94;;;14.48;89.74
77124;BME280;66079;47.646;19.130;2023-05-07T03:18:11;100420.84;;;14.47;89.35
77124;BME280;66079;47.646;19.130;2023-05-07T03:21:14;100422.88;;;14.45;88.96
77124;BME280;66079;47.646;19.130;2023-05-07T03:24:17;100431.44;;;14.52;88.92
77124;BME280;66079;47.646;19.130;2023-05-07T03:27:19;100417.91;;;14.55;88.75
77124;BME280;66079;47.646;19.130;2023-05-07T03:30:22;100425.19;;;14.53;88.59
77124;BME280;66079;47.646;19.130;2023-05-07T03:33:25;100440.78;;;14.59;88.37
77124;BME280;66079;47.646;19.130;2023-05-07T03:36:29;100424.84;;;14.49;88.13
77124;BME280;66079;47.646;19.130;2023-05-07T03:39:32;100437.47;;;14.52;88.41
77124;BME280;66079;47.646;19.130;2023-05-07T03:42:36;100431.44;;;14.52;88.35
77124;BME280;66079;47.646;19.130;2023-05-07T03:45:39;100440.41;;;14.44;88.50
77124;BME280;66079;47.646;19.130;2023-05-07T03:48:55;100437.78;;;14.33;88.43
77124;BME280;66079;47.646;19.130;2023-05-07T03:51:58;100445.63;;;14.33;88.39
77124;BME280;66079;47.646;19.130;2023-05-07T03:55:01;100430.31;;;14.18;88.72
77124;BME280;66079;47.646;19.130;2023-05-07T03:58:06;100438.94;;;14.19;88.71
77124;BME280;66079;47.646;19.130;2023-05-07T04:01:10;100440.78;;;14.18;88.91
77124;BME280;66079;47.646;19.130;2023-05-07T04:04:13;100448.16;;;14.21;88.78
77124;BME280;66079;47.646;19.130;2023-05-07T04:07:15;100449.75;;;14.22;89.00
77124;BME280;66079;47.646;19.130;2023-05-07T04:10:23;100444.03;;;14.14;89.20
77124;BME280;66079;47.646;19.130;2023-05-07T04:13:30;100434.03;;;14.11;89.21
77124;BME280;66079;47.646;19.130;2023-05-07T04:16:34;100443.84;;;14.15;89.24
77124;BME280;66079;47.646;19.130;2023-05-07T04:19:38;100441.00;;;14.17;89.10
77124;BME280;66079;47.646;19.130;2023-05-07T04:22:41;100439.13;;;14.06;89.39
77124;BME280;66079;47.646;19.130;2023-05-07T04:25:44;100453.25;;;14.16;89.73
77124;BME280;66079;47.646;19.130;2023-05-07T04:29:00;100447.69;;;14.13;89.83
77124;BME280;66079;47.646;19.130;2023-05-07T04:32:09;100449.84;;;14.16;89.65
77124;BME280;66079;47.646;19.130;2023-05-07T04:35:14;100453.16;;;14.23;89.70
77124;BME280;66079;47.646;19.130;2023-05-07T04:38:17;100472.22;;;14.30;89.67
77124;BME280;66079;47.646;19.130;2023-05-07T04:41:22;100472.00;;;14.31;89.84
77124;BME280;66079;47.646;19.130;2023-05-07T04:44:25;100463.94;;;14.33;89.51
77124;BME280;66079;47.646;19.130;2023-05-07T04:47:29;100468.88;;;14.52;88.79
77124;BME280;66079;47.646;19.130;2023-05-07T04:50:33;100468.75;;;14.59;88.30
77124;BME280;66079;47.646;19.130;2023-05-07T04:53:37;100466.97;;;14.71;87.30
77124;BME280;66079;47.646;19.130;2023-05-07T04:56:40;100465.81;;;14.67;86.91
77124;BME280;66079;47.646;19.130;2023-05-07T04:59:44;100482.25;;;14.86;86.47
77124;BME280;66079;47.646;19.130;2023-05-07T05:02:46;100469.72;;;14.88;86.14
77124;BME280;66079;47.646;19.130;2023-05-07T05:05:53;100463.91;;;14.97;85.30
77124;BME280;66079;47.646;19.130;2023-05-07T05:08:57;100462.31;;;14.96;84.91
77124;BME280;66079;47.646;19.130;2023-05-07T05:12:02;100482.03;;;15.22;84.53
77124;BME280;66079;47.646;19.130;2023-05-07T05:15:05;100478.03;;;15.19;84.13
77124;BME280;66079;47.646;19.130;2023-05-07T05:18:09;100479.41;;;15.33;83.84
77124;BME280;66079;47.646;19.130;2023-05-07T05:21:12;100496.13;;;15.55;83.38
77124;BME280;66079;47.646;19.130;2023-05-07T05:24:17;100483.94;;;15.61;82.52
77124;BME280;66079;47.646;19.130;2023-05-07T05:27:23;100486.06;;;15.75;81.72
77124;BME280;66079;47.646;19.130;2023-05-07T05:30:26;100495.91;;;15.96;81.12
77124;BME280;66079;47.646;19.130;2023-05-07T05:33:28;100488.38;;;16.00;81.00
77124;BME280;66079;47.646;19.130;2023-05-07T05:36:36;100481.09;;;16.02;80.45
77124;BME280;66079;47.646;19.130;2023-05-07T05:39:39;100498.13;;;16.16;80.24
77124;BME280;66079;47.646;19.130;2023-05-07T05:42:44;100459.03;;;16.15;80.08
77124;BME280;66079;47.646;19.130;2023-05-07T05:45:47;100481.63;;;16.32;79.26
77124;BME280;66079;47.646;19.130;2023-05-07T05:48:50;100474.41;;;16.39;78.05
77124;BME280;66079;47.646;19.130;2023-05-07T05:51:52;100474.94;;;16.53;77.66
77124;BME280;66079;47.646;19.130;2023-05-07T05:54:56;100486.47;;;16.68;77.45
77124;BME280;66079;47.646;19.130;2023-05-07T05:58:00;100486.25;;;16.70;77.18
77124;BME280;66079;47.646;19.130;2023-05-07T06:01:05;100479.50;;;16.74;76.56
77124;BME280;66079;47.646;19.130;2023-05-07T06:04:10;100490.06;;;16.95;76.55
77124;BME280;66079;47.646;19.130;2023-05-07T06:07:13;100484.56;;;16.97;77.02
77124;BME280;66079;47.646;19.130;2023-05-07T06:10:16;100464.69;;;17.01;76.91
77124;BME280;66079;47.646;19.130;2023-05-07T06:13:20;100451.38;;;17.07;76.33
77124;BME280;66079;47.646;19.130;2023-05-07T06:16:24;100473.78;;;17.32;75.36
77124;BME280;66079;47.646;19.130;2023-05-07T06:19:29;100470.25;;;17.43;74.35
77124;BME280;66079;47.646;19.130;2023-05-07T06:22:33;100457.91;;;17.43;74.17
77124;BME280;66079;47.646;19.130;2023-05-07T06:25:36;100462.28;;;17.54;72.87
77124;BME280;66079;47.646;19.130;2023-05-07T06:28:39;100461.97;;;17.72;72.62
77124;BME280;66079;47.646;19.130;2023-05-07T06:31:45;100474.50;;;17.87;72.27
77124;BME280;66079;47.646;19.130;2023-05-07T06:34:49;100462.69;;;17.89;71.45
77124;BME280;66079;47.646;19.130;2023-05-07T06:37:52;100479.91;;;18.23;71.20
77124;BME280;66079;47.646;19.130;2023-05-07T06:40:58;100494.81;;;18.39;70.75
77124;BME280;66079;47.646;19.130;2023-05-07T06:44:02;100490.16;;;18.46;69.32
77124;BME280;66079;47.646;19.130;2023-05-07T06:47:25;100490.41;;;18.77;68.46
77124;BME280;66079;47.646;19.130;2023-05-07T06:50:29;100498.16;;;18.88;67.45
77124;BME280;66079;47.646;19.130;2023-05-07T06:53:33;100495.88;;;19.07;66.57
77124;BME280;66079;47.646;19.130;2023-05-07T06:56:37;100501.63;;;19.30;66.87
77124;BME280;66079;47.646;19.130;2023-05-07T06:59:40;100484.94;;;19.25;66.70
77124;BME280;66079;47.646;19.130;2023-05-07T07:02:43;100492.56;;;19.63;64.92
77124;BME280;66079;47.646;19.130;2023-05-07T07:05:52;100491.56;;;19.84;63.92
77124;BME280;66079;47.646;19.130;2023-05-07T07:08:55;100494.72;;;19.76;62.46
77124;BME280;66079;47.646;19.130;2023-05-07T07:11:58;100491.63;;;19.99;61.97
77124;BME280;66079;47.646;19.130;2023-05-07T07:15:00;100480.63;;;20.17;61.88
77124;BME280;66079;47.646;19.130;2023-05-07T07:18:05;100491.22;;;20.42;61.50
77124;BME280;66079;47.646;19.130;2023-05-07T07:21:08;100479.84;;;20.32;61.19
77124;BME280;66079;47.646;19.130;2023-05-07T07:24:10;100475.63;;;20.31;60.08
77124;BME280;66079;47.646;19.130;2023-05-07T07:27:14;100493.88;;;20.57;58.13
77124;BME280;66079;47.646;19.130;2023-05-07T07:30:17;100497.56;;;20.76;58.07
77124;BME280;66079;47.646;19.130;2023-05-07T07:33:23;100506.53;;;21.21;55.77
77124;BME280;66079;47.646;19.130;2023-05-07T07:36:26;100486.91;;;21.42;55.09
77124;BME280;66079;47.646;19.130;2023-05-07T07:39:44;100494.69;;;21.92;54.46
77124;BME280;66079;47.646;19.130;2023-05-07T07:42:48;100496.19;;;22.08;53.13
77124;BME280;66079;47.646;19.130;2023-05-07T07:45:51;100494.16;;;21.95;53.61
77124;BME280;66079;47.646;19.130;2023-05-07T07:48:55;100488.03;;;21.99;52.06
77124;BME280;66079;47.646;19.130;2023-05-07T07:51:57;100500.09;;;22.20;50.25
77124;BME280;66079;47.646;19.130;2023-05-07T07:55:02;100503.16;;;22.37;50.76
77124;BME280;66079;47.646;19.130;2023-05-07T07:58:06;100503.09;;;22.53;50.53
77124;BME280;66079;47.646;19.130;2023-05-07T08:01:09;100492.00;;;22.40;49.60
77124;BME280;66079;47.646;19.130;2023-05-07T08:04:12;100498.25;;;22.93;47.10
77124;BME280;66079;47.646;19.130;2023-05-07T08:07:16;100509.72;;;22.84;46.68
77124;BME280;66079;47.646;19.130;2023-05-07T08:10:23;100499.22;;;23.02;46.54
77124;BME280;66079;47.646;19.130;2023-05-07T08:13:32;100493.19;;;22.97;46.74
77124;BME280;66079;47.646;19.130;2023-05-07T08:16:35;100506.94;;;22.70;47.34
77124;BME280;66079;47.646;19.130;2023-05-07T08:19:37;100498.72;;;22.28;47.33
77124;BME280;66079;47.646;19.130;2023-05-07T08:22:43;100499.16;;;22.40;47.80
77124;BME280;66079;47.646;19.130;2023-05-07T08:25:45;100500.22;;;22.44;47.97
77124;BME280;66079;47.646;19.130;2023-05-07T08:28:50;100489.53;;;22.15;47.84
77124;BME280;66079;47.646;19.130;2023-05-07T08:31:53;100495.03;;;22.24;48.07
77124;BME280;66079;47.646;19.130;2023-05-07T08:34:56;100501.91;;;22.25;48.29
77124;BME280;66079;47.646;19.130;2023-05-07T08:37:59;100493.31;;;22.43;47.31
77124;BME280;66079;47.646;19.130;2023-05-07T08:41:02;100498.22;;;22.26;47.47
77124;BME280;66079;47.646;19.130;2023-05-07T08:44:11;100493.94;;;22.97;46.30
77124;BME280;66079;47.646;19.130;2023-05-07T08:47:15;100494.28;;;23.19;45.38
77124;BME280;66079;47.646;19.130;2023-05-07T08:50:20;100501.16;;;23.49;44.57
77124;BME280;66079;47.646;19.130;2023-05-07T08:53:24;100481.88;;;23.38;44.45
77124;BME280;66079;47.646;19.130;2023-05-07T08:56:27;100491.94;;;23.65;43.70
77124;BME280;66079;47.646;19.130;2023-05-07T08:59:30;100484.09;;;23.55;43.47
77124;BME280;66079;47.646;19.130;2023-05-07T09:02:35;100488.44;;;23.46;43.48
77124;BME280;66079;47.646;19.130;2023-05-07T09:05:39;100488.97;;;23.66;43.59
77124;BME280;66079;47.646;19.130;2023-05-07T09:08:54;100509.72;;;23.12;45.53
77124;BME280;66079;47.646;19.130;2023-05-07T09:12:00;100502.56;;;23.13;45.39
77124;BME280;66079;47.646;19.130;2023-05-07T09:15:07;100498.06;;;23.13;45.54
77124;BME280;66079;47.646;19.130;2023-05-07T09:18:12;100477.03;;;23.45;44.92
77124;BME280;66079;47.646;19.130;2023-05-07T09:21:19;100485.28;;;23.86;44.49
77124;BME280;66079;47.646;19.130;2023-05-07T09:24:24;100489.09;;;23.80;44.82
77124;BME280;66079;47.646;19.130;2023-05-07T09:27:28;100488.09;;;23.95;43.12
77124;BME280;66079;47.646;19.130;2023-05-07T09:30:33;100492.84;;;23.98;40.96
77124;BME280;66079;47.646;19.130;2023-05-07T09:33:39;100489.28;;;24.26;42.10
77124;BME280;66079;47.646;19.130;2023-05-07T09:36:43;100491.25;;;23.97;42.27
77124;BME280;66079;47.646;19.130;2023-05-07T09:39:50;100484.34;;;23.06;44.55
77124;BME280;66079;47.646;19.130;2023-05-07T09:42:56;100497.16;;;22.66;45.49
77124;BME280;66079;47.646;19.130;2023-05-07T09:46:11;100493.63;;;22.75;45.28
77124;BME280;66079;47.646;19.130;2023-05-07T09:49:21;100476.03;;;23.13;43.98
77124;BME280;66079;47.646;19.130;2023-05-07T09:52:27;100471.72;;;23.45;43.74
77124;BME280;66079;47.646;19.130;2023-05-07T09:55:37;100495.03;;;24.33;42.08
77124;BME280;66079;47.646;19.130;2023-05-07T09:58:41;100493.56;;;24.59;41.12
77124;BME280;66079;47.646;19.130;2023-05-07T10:01:44;100488.91;;;25.42;40.60
77124;BME280;66079;47.646;19.130;2023-05-07T10:04:50;100493.75;;;24.94;40.85
77124;BME280;66079;47.646;19.130;2023-05-07T10:07:58;100502.38;;;25.05;40.51
77124;BME280;66079;47.646;19.130;2023-05-07T10:11:01;100495.50;;;24.72;41.16
77124;BME280;66079;47.646;19.130;2023-05-07T10:14:06;100484.50;;;25.51;40.39
77124;BME280;66079;47.646;19.130;2023-05-07T10:17:11;100485.28;;;25.38;39.80
77124;BME280;66079;47.646;19.130;2023-05-07T10:20:17;100490.41;;;25.35;40.45
77124;BME280;66079;47.646;19.130;2023-05-07T10:23:23;100496.69;;;25.25;40.18
77124;BME280;66079;47.646;19.130;2023-05-07T10:26:31;100491.91;;;24.63;41.51
77124;BME280;66079;47.646;19.130;2023-05-07T10:32:53;100480.25;;;22.90;46.06
77124;BME280;66079;47.646;19.130;2023-05-07T10:36:03;100486.41;;;22.86;46.69
77124;BME280;66079;47.646;19.130;2023-05-07T10:39:09;100481.88;;;23.38;44.89
77124;BME280;66079;47.646;19.130;2023-05-07T10:42:14;100481.69;;;23.77;44.98
77124;BME280;66079;47.646;19.130;2023-05-07T10:45:23;100487.28;;;23.76;45.16
77124;BME280;66079;47.646;19.130;2023-05-07T10:48:28;100476.66;;;23.94;44.84
77124;BME280;66079;47.646;19.130;2023-05-07T10:51:41;100482.28;;;23.50;45.16
77124;BME280;66079;47.646;19.130;2023-05-07T10:58:27;100487.25;;;23.33;45.32
77124;BME280;66079;47.646;19.130;2023-05-07T11:02:04;100487.28;;;24.36;43.53
77124;BME280;66079;47.646;19.130;2023-05-07T11:05:22;100490.72;;;27.76;36.50
77124;BME280;66079;47.646;19.130;2023-05-07T11:09:06;100485.19;;;28.92;34.42
77124;BME280;66079;47.646;19.130;2023-05-07T11:15:40;100479.22;;;29.70;31.07
77124;BME280;66079;47.646;19.130;2023-05-07T11:19:05;100470.56;;;30.59;29.95
77124;BME280;66079;47.646;19.130;2023-05-07T11:25:59;100471.38;;;26.40;38.38
77124;BME280;66079;47.646;19.130;2023-05-07T11:29:02;100473.31;;;25.09;40.08
77124;BME280;66079;47.646;19.130;2023-05-07T11:32:04;100477.41;;;25.01;40.30
77124;BME280;66079;47.646;19.130;2023-05-07T11:35:22;100471.00;;;24.56;40.54
77124;BME280;66079;47.646;19.130;2023-05-07T11:38:26;100469.28;;;24.47;40.91
77124;BME280;66079;47.646;19.130;2023-05-07T11:41:36;100474.72;;;24.74;39.36
77124;BME280;66079;47.646;19.130;2023-05-07T11:44:44;100463.03;;;24.56;39.36
77124;BME280;66079;47.646;19.130;2023-05-07T11:47:48;100466.06;;;24.82;39.03
77124;BME280;66079;47.646;19.130;2023-05-07T11:51:00;100467.56;;;24.74;39.18
77124;BME280;66079;47.646;19.130;2023-05-07T11:54:04;100454.00;;;24.39;40.23
77124;BME280;66079;47.646;19.130;2023-05-07T11:57:15;100436.34;;;23.74;41.22
77124;BME280;66079;47.646;19.130;2023-05-07T12:00:17;100446.53;;;23.85;40.78
77124;BME280;66079;47.646;19.130;2023-05-07T12:03:20;100462.69;;;23.89;41.86
77124;BME280;66079;47.646;19.130;2023-05-07T12:06:23;100470.56;;;23.99;42.73
77124;BME280;66079;47.646;19.130;2023-05-07T12:09:26;100456.19;;;28.22;34.34
77124;BME280;66079;47.646;19.130;2023-05-07T12:12:29;100472.03;;;31.74;28.96
77124;BME280;66079;47.646;19.130;2023-05-07T12:15:35;100466.59;;;33.62;25.76
77124;BME280;66079;47.646;19.130;2023-05-07T12:18:37;100482.34;;;35.20;23.27
77124;BME280;66079;47.646;19.130;2023-05-07T12:21:40;100467.97;;;36.27;21.51
77124;BME280;66079;47.646;19.130;2023-05-07T12:24:45;100469.34;;;32.84;25.11
77124;BME280;66079;47.646;19.130;2023-05-07T12:27:52;100468.56;;;36.10;21.41
77124;BME280;66079;47.646;19.130;2023-05-07T12:30:55;100453.03;;;34.96;22.13
77124;BME280;66079;47.646;19.130;2023-05-07T12:33:59;100458.75;;;34.30;21.93
77124;BME280;66079;47.646;19.130;2023-05-07T12:37:02;100441.81;;;30.80;25.05
77124;BME280;66079;47.646;19.130;2023-05-07T12:40:06;100448.97;;;28.14;28.13
77124;BME280;66079;47.646;19.130;2023-05-07T12:43:20;100451.81;;;26.97;30.21
77124;BME280;66079;47.646;19.130;2023-05-07T12:46:23;100437.56;;;26.71;31.58
77124;BME280;66079;47.646;19.130;2023-05-07T12:49:25;100441.84;;;26.58;32.96
77124;BME280;66079;47.646;19.130;2023-05-07T12:52:28;100427.63;;;26.41;33.42
77124;BME280;66079;47.646;19.130;2023-05-07T12:55:31;100433.69;;;31.77;25.25
77124;BME280;66079;47.646;19.130;2023-05-07T12:58:36;100442.06;;;33.86;22.70
77124;BME280;66079;47.646;19.130;2023-05-07T13:01:39;100421.69;;;31.35;25.54
77124;BME280;66079;47.646;19.130;2023-05-07T13:04:41;100426.81;;;31.52;25.66
77124;BME280;66079;47.646;19.130;2023-05-07T13:07:53;100424.31;;;32.38;24.01
77124;BME280;66079;47.646;19.130;2023-05-07T13:11:00;100433.72;;;32.75;24.05
77124;BME280;66079;47.646;19.130;2023-05-07T13:14:06;100414.72;;;29.17;28.32
77124;BME280;66079;47.646;19.130;2023-05-07T13:17:08;100402.69;;;28.94;29.33
77124;BME280;66079;47.646;19.130;2023-05-07T13:20:11;100415.59;;;31.50;26.15
77124;BME280;66079;47.646;19.130;2023-05-07T13:23:15;100412.72;;;31.18;26.92
77124;BME280;66079;47.646;19.130;2023-05-07T13:26:17;100422.25;;;31.80;25.88
77124;BME280;66079;47.646;19.130;2023-05-07T13:29:26;100417.25;;;32.06;25.00
77124;BME280;66079;47.646;19.130;2023-05-07T13:32:32;100423.50;;;34.00;23.18
77124;BME280;66079;47.646;19.130;2023-05-07T13:35:35;100422.13;;;35.75;20.91
77124;BME280;66079;47.646;19.130;2023-05-07T13:38:39;100410.94;;;32.88;23.09
77124;BME280;66079;47.646;19.130;2023-05-07T13:41:42;100398.34;;;33.77;22.84
77124;BME280;66079;47.646;19.130;2023-05-07T13:44:44;100405.25;;;33.05;23.94
77124;BME280;66079;47.646;19.130;2023-05-07T13:47:47;100406.81;;;35.86;21.35
77124;BME280;66079;47.646;19.130;2023-05-07T13:50:51;100404.09;;;34.78;21.25
77124;BME280;66079;47.646;19.130;2023-05-07T13:53:54;100397.22;;;33.97;21.99
77124;BME280;66079;47.646;19.130;2023-05-07T13:56:57;100391.81;;;35.62;19.99
77124;BME280;66079;47.646;19.130;2023-05-07T13:59:59;100393.06;;;37.47;18.87
77124;BME280;66079;47.646;19.130;2023-05-07T14:03:03;100397.91;;;37.95;18.01
77124;BME280;66079;47.646;19.130;2023-05-07T14:06:06;100392.53;;;36.69;19.12
77124;BME280;66079;47.646;19.130;2023-05-07T14:09:09;100385.00;;;36.45;18.71
77124;BME280;66079;47.646;19.130;2023-05-07T14:12:14;100393.00;;;35.94;19.21
77124;BME280;66079;47.646;19.130;2023-05-07T14:15:16;100390.69;;;35.11;19.84
77124;BME280;66079;47.646;19.130;2023-05-07T14:18:19;100386.41;;;35.36;19.27
77124;BME280;66079;47.646;19.130;2023-05-07T14:21:21;100396.44;;;34.38;20.76
77124;BME280;66079;47.646;19.130;2023-05-07T14:24:24;100399.53;;;35.08;20.01
77124;BME280;66079;47.646;19.130;2023-05-07T14:27:39;100390.47;;;34.07;20.36
77124;BME280;66079;47.646;19.130;2023-05-07T14:30:42;100395.94;;;35.53;18.87
77124;BME280;66079;47.646;19.130;2023-05-07T14:33:45;100409.09;;;35.54;19.66
77124;BME280;66079;47.646;19.130;2023-05-07T14:36:48;100397.06;;;36.55;18.45
77124;BME280;66079;47.646;19.130;2023-05-07T14:39:51;100418.72;;;34.77;20.07
77124;BME280;66079;47.646;19.130;2023-05-07T14:42:54;100412.31;;;35.63;19.05
77124;BME280;66079;47.646;19.130;2023-05-07T14:45:57;100422.88;;;34.94;19.88
77124;BME280;66079;47.646;19.130;2023-05-07T14:49:01;100408.28;;;34.11;21.00
77124;BME280;66079;47.646;19.130;2023-05-07T14:52:04;100407.00;;;33.86;21.06
77124;BME280;66079;47.646;19.130;2023-05-07T14:55:08;100405.91;;;32.71;22.69
77124;BME280;66079;47.646;19.130;2023-05-07T14:58:11;100404.63;;;32.96;22.21
77124;BME280;66079;47.646;19.130;2023-05-07T15:01:14;100417.75;;;34.02;21.03
77124;BME280;66079;47.646;19.130;2023-05-07T15:04:17;100411.72;;;34.31;20.92
77124;BME280;66079;47.646;19.130;2023-05-07T15:07:20;100409.31;;;33.15;21.82
77124;BME280;66079;47.646;19.130;2023-05-07T15:10:22;100414.38;;;33.35;21.54
77124;BME280;66079;47.646;19.130;2023-05-07T15:13:25;100412.09;;;33.72;21.06
77124;BME280;66079;47.646;19.130;2023-05-07T15:16:28;100395.44;;;32.97;21.76
77124;BME280;66079;47.646;19.130;2023-05-07T15:19:30;100395.50;;;32.70;22.56
77124;BME280;66079;47.646;19.130;2023-05-07T15:22:33;100409.41;;;33.37;22.17
77124;BME280;66079;47.646;19.130;2023-05-07T15:25:36;100406.78;;;32.75;22.28
77124;BME280;66079;47.646;19.130;2023-05-07T15:28:38;100405.69;;;31.78;23.58
77124;BME280;66079;47.646;19.130;2023-05-07T15:31:42;100395.22;;;31.61;24.07
77124;BME280;66079;47.646;19.130;2023-05-07T15:34:44;100390.66;;;31.49;24.64
77124;BME280;66079;47.646;19.130;2023-05-07T15:37:48;100399.16;;;32.46;23.01
77124;BME280;66079;47.646;19.130;2023-05-07T15:40:54;100400.38;;;30.57;25.32
77124;BME280;66079;47.646;19.130;2023-05-07T15:43:58;100397.28;;;31.79;23.71
77124;BME280;66079;47.646;19.130;2023-05-07T15:47:00;100408.16;;;32.38;22.93
77124;BME280;66079;47.646;19.130;2023-05-07T15:50:03;100406.13;;;32.35;22.92
77124;BME280;66079;47.646;19.130;2023-05-07T15:53:06;100406.44;;;31.51;23.70
77124;BME280;66079;47.646;19.130;2023-05-07T15:56:09;100419.53;;;31.64;23.97
77124;BME280;66079;47.646;19.130;2023-05-07T15:59:12;100398.06;;;30.03;26.18
77124;BME280;66079;47.646;19.130;2023-05-07T16:02:17;100413.63;;;30.30;25.82
77124;BME280;66079;47.646;19.130;2023-05-07T16:05:20;100399.81;;;29.98;26.14
77124;BME280;66079;47.646;19.130;2023-05-07T16:08:23;100419.06;;;29.30;26.56